sensor_id;sensor_type;location;lat;lon;timestamp;pressure;altitude;pressure_sealevel;temperature;humidity
52983;BME280;48698;45.736;13.926;2023-06-22T00:03:52;98036.97;;;20.29;100.00
52983;BME280;48698;45.736;13.926;2023-06-22T00:08:55;97978.81;;;19.73;100.00
52983;BME280;48698;45.736;13.926;2023-06-22T00:14:06;98058.97;;;20.02;100.00
52983;BME280;48698;45.736;13.926;2023-06-22T00:19:09;97754.63;;;18.07;100.00
52983;BME280;48698;45.736;13.926;2023-06-22T00:24:14;98033.81;;;19.59;100.00
52983;BME280;48698;45.736;13.926;2023-06-22T00:29:26;98041.09;;;19.47;100.00
52983;BME280;48698;45.736;13.926;2023-06-22T00:34:29;98016.16;;;19.77;100.00
52983;BME280;48698;45.736;13.926;2023-06-22T00:39:32;98034.56;;;18.94;100.00
52983;BME280;48698;45.736;13.926;2023-06-22T00:44:36;97913.09;;;18.20;100.00
52983;BME280;48698;45.736;13.926;2023-06-22T00:49:39;97961.00;;;19.49;100.00
52983;BME280;48698;45.736;13.926;2023-06-22T00:54:42;98042.06;;;19.57;100.00
52983;BME280;48698;45.736;13.926;2023-06-22T00:59:48;98039.06;;;18.94;100.00
52983;BME280;48698;45.736;13.926;2023-06-22T01:05:00;97987.59;;;18.98;100.00
52983;BME280;48698;45.736;13.926;2023-06-22T01:10:21;98040.22;;;19.25;100.00
52983;BME280;48698;45.736;13.926;2023-06-22T01:15:33;97963.09;;;19.35;100.00
52983;BME280;48698;45.736;13.926;2023-06-22T01:20:39;98027.00;;;19.22;100.00
52983;BME280;48698;45.736;13.926;2023-06-22T01:25:57;98044.34;;;19.06;100.00
52983;BME280;48698;45.736;13.926;2023-06-22T01:31:02;98041.09;;;19.47;100.00
52983;BME280;48698;45.736;13.926;2023-06-22T01:36:09;98037.03;;;19.53;100.00
52983;BME280;48698;45.736;13.926;2023-06-22T01:41:12;98020.63;;;19.12;100.00
52983;BME280;48698;45.736;13.926;2023-06-22T01:46:15;98033.72;;;19.38;100.00
52983;BME280;48698;45.736;13.926;2023-06-22T01:51:21;98023.69;;;19.40;100.00
52983;BME280;48698;45.736;13.926;2023-06-22T01:56:26;97901.34;;;18.67;100.00
52983;BME280;48698;45.736;13.926;2023-06-22T02:01:40;97985.63;;;19.12;100.00
52983;BME280;48698;45.736;13.926;2023-06-22T02:06:45;98010.94;;;19.09;100.00
52983;BME280;48698;45.736;13.926;2023-06-22T02:11:50;98018.16;;;18.97;100.00
52983;BME280;48698;45.736;13.926;2023-06-22T02:16:57;97930.69;;;18.81;100.00
52983;BME280;48698;45.736;13.926;2023-06-22T02:22:01;97974.84;;;19.12;100.00
52983;BME280;48698;45.736;13.926;2023-06-22T02:27:05;97962.59;;;18.96;100.00
52983;BME280;48698;45.736;13.926;2023-06-22T02:32:09;97906.41;;;18.36;100.00
52983;BME280;48698;45.736;13.926;2023-06-22T02:37:13;97987.31;;;19.35;100.00
52983;BME280;48698;45.736;13.926;2023-06-22T02:42:17;97864.03;;;18.73;100.00
52983;BME280;48698;45.736;13.926;2023-06-22T02:47:22;97993.44;;;19.37;100.00
52983;BME280;48698;45.736;13.926;2023-06-22T02:52:35;97993.44;;;19.26;100.00
52983;BME280;48698;45.736;13.926;2023-06-22T02:57:38;98004.09;;;19.27;100.00
52983;BME280;48698;45.736;13.926;2023-06-22T03:02:47;98004.44;;;19.56;100.00
52983;BME280;48698;45.736;13.926;2023-06-22T03:07:51;97802.03;;;18.30;100.00
52983;BME280;48698;45.736;13.926;2023-06-22T03:12:54;97935.34;;;18.33;100.00
52983;BME280;48698;45.736;13.926;2023-06-22T03:18:07;97991.47;;;18.72;100.00
52983;BME280;48698;45.736;13.926;2023-06-22T03:23:09;98002.38;;;18.93;100.00
52983;BME280;48698;45.736;13.926;2023-06-22T03:28:12;97958.94;;;18.64;100.00
52983;BME280;48698;45.736;13.926;2023-06-22T03:33:15;98016.94;;;19.13;100.00
52983;BME280;48698;45.736;13.926;2023-06-22T03:38:17;97966.00;;;18.54;100.00
52983;BME280;48698;45.736;13.926;2023-06-22T03:43:20;97979.19;;;18.11;100.00
52983;BME280;48698;45.736;13.926;2023-06-22T03:48:23;98027.91;;;18.65;100.00
52983;BME280;48698;45.736;13.926;2023-06-22T03:53:26;97941.59;;;18.33;100.00
52983;BME280;48698;45.736;13.926;2023-06-22T03:58:29;97936.72;;;18.49;100.00
52983;BME280;48698;45.736;13.926;2023-06-22T04:03:45;98017.78;;;19.13;100.00
52983;BME280;48698;45.736;13.926;2023-06-22T04:08:50;97979.63;;;18.75;100.00
52983;BME280;48698;45.736;13.926;2023-06-22T04:13:53;97910.78;;;18.15;100.00
52983;BME280;48698;45.736;13.926;2023-06-22T04:18:56;98018.88;;;18.99;100.00
52983;BME280;48698;45.736;13.926;2023-06-22T04:23:59;97961.41;;;18.78;100.00
52983;BME280;48698;45.736;13.926;2023-06-22T04:29:01;98025.50;;;19.62;100.00
52983;BME280;48698;45.736;13.926;2023-06-22T04:34:07;98022.06;;;19.71;100.00
52983;BME280;48698;45.736;13.926;2023-06-22T04:39:20;98029.19;;;19.61;100.00
52983;BME280;48698;45.736;13.926;2023-06-22T04:44:28;98032.06;;;19.91;100.00
52983;BME280;48698;45.736;13.926;2023-06-22T04:49:31;97930.72;;;19.68;100.00
52983;BME280;48698;45.736;13.926;2023-06-22T04:54:39;97900.75;;;19.82;100.00
52983;BME280;48698;45.736;13.926;2023-06-22T04:59:43;97922.84;;;20.29;100.00
52983;BME280;48698;45.736;13.926;2023-06-22T05:04:46;98012.03;;;20.99;100.00
52983;BME280;48698;45.736;13.926;2023-06-22T05:10:04;97987.47;;;21.02;100.00
52983;BME280;48698;45.736;13.926;2023-06-22T05:15:08;98016.06;;;21.35;100.00
52983;BME280;48698;45.736;13.926;2023-06-22T05:20:12;97996.16;;;21.26;100.00
52983;BME280;48698;45.736;13.926;2023-06-22T05:25:16;97829.50;;;20.37;100.00
52983;BME280;48698;45.736;13.926;2023-06-22T05:30:19;97901.19;;;21.21;100.00
52983;BME280;48698;45.736;13.926;2023-06-22T05:35:23;98012.06;;;22.57;100.00
52983;BME280;48698;45.736;13.926;2023-06-22T05:40:25;97976.44;;;22.52;100.00
52983;BME280;48698;45.736;13.926;2023-06-22T05:45:30;98005.50;;;23.25;100.00
52983;BME280;48698;45.736;13.926;2023-06-22T05:50:32;98008.97;;;23.54;100.00
52983;BME280;48698;45.736;13.926;2023-06-22T05:55:43;97994.91;;;23.68;100.00
52983;BME280;48698;45.736;13.926;2023-06-22T06:00:46;97975.25;;;23.84;100.00
52983;BME280;48698;45.736;13.926;2023-06-22T06:05:59;97982.94;;;23.89;100.00
52983;BME280;48698;45.736;13.926;2023-06-22T06:11:01;97947.81;;;23.87;100.00
52983;BME280;48698;45.736;13.926;2023-06-22T06:16:04;97935.63;;;24.18;100.00
52983;BME280;48698;45.736;13.926;2023-06-22T06:21:07;97897.41;;;24.12;100.00
52983;BME280;48698;45.736;13.926;2023-06-22T06:26:10;97819.84;;;24.09;100.00
52983;BME280;48698;45.736;13.926;2023-06-22T06:31:12;97874.69;;;24.82;100.00
52983;BME280;48698;45.736;13.926;2023-06-22T06:36:19;97808.94;;;24.53;100.00
52983;BME280;48698;45.736;13.926;2023-06-22T06:41:22;97971.63;;;25.83;100.00
52983;BME280;48698;45.736;13.926;2023-06-22T06:46:25;97975.44;;;25.98;100.00
52983;BME280;48698;45.736;13.926;2023-06-22T06:51:28;97919.94;;;25.75;100.00
52983;BME280;48698;45.736;13.926;2023-06-22T06:56:31;97816.44;;;25.18;100.00
52983;BME280;48698;45.736;13.926;2023-06-22T07:01:38;97969.72;;;26.50;100.00
52983;BME280;48698;45.736;13.926;2023-06-22T07:06:40;97858.25;;;26.32;100.00
52983;BME280;48698;45.736;13.926;2023-06-22T07:11:54;97812.84;;;26.25;100.00
52983;BME280;48698;45.736;13.926;2023-06-22T07:16:58;97968.84;;;27.69;100.00
52983;BME280;48698;45.736;13.926;2023-06-22T07:22:01;97978.19;;;27.74;100.00
52983;BME280;48698;45.736;13.926;2023-06-22T07:27:04;97977.34;;;28.13;100.00
52983;BME280;48698;45.736;13.926;2023-06-22T07:32:09;97981.91;;;28.20;100.00
52983;BME280;48698;45.736;13.926;2023-06-22T07:37:22;97961.78;;;28.59;100.00
52983;BME280;48698;45.736;13.926;2023-06-22T07:42:25;97965.44;;;28.74;100.00
52983;BME280;48698;45.736;13.926;2023-06-22T07:47:28;97953.81;;;29.24;100.00
52983;BME280;48698;45.736;13.926;2023-06-22T07:52:41;97917.56;;;28.78;100.00
52983;BME280;48698;45.736;13.926;2023-06-22T07:57:46;97949.22;;;29.10;100.00
52983;BME280;48698;45.736;13.926;2023-06-22T08:02:50;97934.34;;;28.75;100.00
52983;BME280;48698;45.736;13.926;2023-06-22T08:12:52;97961.53;;;28.91;100.00
52983;BME280;48698;45.736;13.926;2023-06-22T08:17:56;97962.22;;;28.93;100.00
52983;BME280;48698;45.736;13.926;2023-06-22T08:42:10;97934.91;;;30.87;100.00
52983;BME280;48698;45.736;13.926;2023-06-22T09:11:18;97894.38;;;30.55;100.00
52983;BME280;48698;45.736;13.926;2023-06-22T09:21:07;97889.13;;;31.09;100.00
52983;BME280;48698;45.736;13.926;2023-06-22T09:45:54;97928.34;;;31.09;100.00
52983;BME280;48698;45.736;13.926;2023-06-22T10:53:33;97870.25;;;32.74;100.00
52983;BME280;48698;45.736;13.926;2023-06-22T11:04:48;97886.06;;;32.53;100.00
52983;BME280;48698;45.736;13.926;2023-06-22T11:09:52;97877.81;;;32.40;100.00
52983;BME280;48698;45.736;13.926;2023-06-22T11:19:57;97867.66;;;32.47;100.00
52983;BME280;48698;45.736;13.926;2023-06-22T11:25:02;97881.16;;;32.15;100.00
52983;BME280;48698;45.736;13.926;2023-06-22T11:35:03;97880.97;;;31.63;100.00
52983;BME280;48698;45.736;13.926;2023-06-22T11:40:16;97876.41;;;31.90;100.00
52983;BME280;48698;45.736;13.926;2023-06-22T11:45:21;97873.41;;;31.65;100.00
52983;BME280;48698;45.736;13.926;2023-06-22T11:50:24;97880.41;;;31.74;100.00
52983;BME280;48698;45.736;13.926;2023-06-22T11:55:29;97834.56;;;31.74;100.00
52983;BME280;48698;45.736;13.926;2023-06-22T12:00:32;97858.97;;;32.23;100.00
52983;BME280;48698;45.736;13.926;2023-06-22T12:05:52;97865.81;;;31.73;100.00
52983;BME280;48698;45.736;13.926;2023-06-22T12:11:07;97867.75;;;31.86;100.00
52983;BME280;48698;45.736;13.926;2023-06-22T12:16:31;97872.41;;;31.38;100.00
52983;BME280;48698;45.736;13.926;2023-06-22T12:21:34;97856.88;;;31.52;100.00
52983;BME280;48698;45.736;13.926;2023-06-22T12:26:37;97819.47;;;31.10;100.00
52983;BME280;48698;45.736;13.926;2023-06-22T12:31:39;97867.50;;;31.74;100.00
52983;BME280;48698;45.736;13.926;2023-06-22T12:36:42;97861.03;;;31.48;100.00
52983;BME280;48698;45.736;13.926;2023-06-22T12:41:45;97856.59;;;31.94;100.00
52983;BME280;48698;45.736;13.926;2023-06-22T12:46:48;97857.97;;;31.64;100.00
52983;BME280;48698;45.736;13.926;2023-06-22T12:51:51;97856.66;;;32.07;100.00
52983;BME280;48698;45.736;13.926;2023-06-22T12:56:54;97857.00;;;31.91;96.70
52983;BME280;48698;45.736;13.926;2023-06-22T13:02:07;97806.03;;;31.82;99.56
52983;BME280;48698;45.736;13.926;2023-06-22T13:07:10;97862.16;;;32.47;92.37
52983;BME280;48698;45.736;13.926;2023-06-22T13:12:18;97846.88;;;31.98;91.60
52983;BME280;48698;45.736;13.926;2023-06-22T13:17:25;97856.84;;;32.12;93.95
52983;BME280;48698;45.736;13.926;2023-06-22T13:22:31;97854.88;;;31.93;91.49
52983;BME280;48698;45.736;13.926;2023-06-22T13:27:54;97849.47;;;32.33;90.77
52983;BME280;48698;45.736;13.926;2023-06-22T13:39:56;97780.09;;;31.85;85.44
52983;BME280;48698;45.736;13.926;2023-06-22T13:44:58;97825.78;;;32.18;87.26
52983;BME280;48698;45.736;13.926;2023-06-22T13:50:02;97796.22;;;32.27;88.44
52983;BME280;48698;45.736;13.926;2023-06-22T13:55:05;97810.56;;;32.09;84.23
52983;BME280;48698;45.736;13.926;2023-06-22T14:00:09;97803.41;;;32.15;87.23
52983;BME280;48698;45.736;13.926;2023-06-22T14:05:12;97813.53;;;32.41;87.58
52983;BME280;48698;45.736;13.926;2023-06-22T14:10:15;97797.47;;;32.18;86.37
52983;BME280;48698;45.736;13.926;2023-06-22T14:20:41;97800.22;;;32.38;88.00
52983;BME280;48698;45.736;13.926;2023-06-22T14:25:45;97746.72;;;32.40;93.84
52983;BME280;48698;45.736;13.926;2023-06-22T14:47:22;97729.38;;;32.40;85.91
52983;BME280;48698;45.736;13.926;2023-06-22T14:52:26;97780.13;;;32.57;86.06
52983;BME280;48698;45.736;13.926;2023-06-22T14:57:30;97796.38;;;32.78;87.53
52983;BME280;48698;45.736;13.926;2023-06-22T15:02:34;97766.59;;;32.22;82.13
52983;BME280;48698;45.736;13.926;2023-06-22T15:07:39;97728.75;;;31.85;82.95
52983;BME280;48698;45.736;13.926;2023-06-22T15:12:45;97620.41;;;31.61;85.60
52983;BME280;48698;45.736;13.926;2023-06-22T15:17:49;97760.50;;;32.07;82.26
52983;BME280;48698;45.736;13.926;2023-06-22T15:22:52;97730.38;;;32.78;83.79
52983;BME280;48698;45.736;13.926;2023-06-22T15:32:45;97687.94;;;32.61;84.29
52983;BME280;48698;45.736;13.926;2023-06-22T15:37:50;97666.13;;;32.59;82.87
52983;BME280;48698;45.736;13.926;2023-06-22T15:52:50;97731.38;;;32.97;81.61
52983;BME280;48698;45.736;13.926;2023-06-22T15:57:55;97756.97;;;33.10;78.27
52983;BME280;48698;45.736;13.926;2023-06-22T16:02:58;97712.88;;;32.66;81.73
52983;BME280;48698;45.736;13.926;2023-06-22T16:31:26;97744.44;;;32.17;94.83
52983;BME280;48698;45.736;13.926;2023-06-22T16:41:32;97721.97;;;32.47;95.59
52983;BME280;48698;45.736;13.926;2023-06-22T16:46:35;97724.28;;;32.56;100.00
52983;BME280;48698;45.736;13.926;2023-06-22T16:51:39;97721.72;;;32.81;100.00
52983;BME280;48698;45.736;13.926;2023-06-22T17:17:45;97629.06;;;31.58;100.00
52983;BME280;48698;45.736;13.926;2023-06-22T17:22:50;97694.09;;;31.77;100.00
52983;BME280;48698;45.736;13.926;2023-06-22T17:37:32;97700.06;;;30.66;100.00
52983;BME280;48698;45.736;13.926;2023-06-22T17:42:36;97596.03;;;30.11;100.00
52983;BME280;48698;45.736;13.926;2023-06-22T18:14:48;97707.25;;;28.03;100.00
52983;BME280;48698;45.736;13.926;2023-06-22T18:19:55;97709.09;;;28.55;100.00
52983;BME280;48698;45.736;13.926;2023-06-22T18:25:01;97658.44;;;27.11;100.00
52983;BME280;48698;45.736;13.926;2023-06-22T18:30:04;97658.75;;;27.08;100.00
52983;BME280;48698;45.736;13.926;2023-06-22T18:35:09;97728.69;;;26.54;100.00
52983;BME280;48698;45.736;13.926;2023-06-22T18:40:14;97668.78;;;26.54;100.00
52983;BME280;48698;45.736;13.926;2023-06-22T18:45:26;97658.13;;;25.65;100.00
52983;BME280;48698;45.736;13.926;2023-06-22T18:50:36;97730.19;;;25.77;100.00
52983;BME280;48698;45.736;13.926;2023-06-22T18:55:56;97724.34;;;26.12;100.00
52983;BME280;48698;45.736;13.926;2023-06-22T19:01:17;97741.47;;;26.53;100.00
52983;BME280;48698;45.736;13.926;2023-06-22T19:06:59;97732.91;;;26.64;100.00
52983;BME280;48698;45.736;13.926;2023-06-22T19:12:24;97736.69;;;24.86;100.00
52983;BME280;48698;45.736;13.926;2023-06-22T19:17:42;97736.50;;;24.87;100.00
52983;BME280;48698;45.736;13.926;2023-06-22T19:22:53;97753.97;;;24.51;100.00
52983;BME280;48698;45.736;13.926;2023-06-22T19:27:58;97751.19;;;24.35;100.00
52983;BME280;48698;45.736;13.926;2023-06-22T19:33:12;97729.47;;;24.35;100.00
52983;BME280;48698;45.736;13.926;2023-06-22T19:38:19;97743.41;;;23.71;100.00
52983;BME280;48698;45.736;13.926;2023-06-22T19:43:26;97768.63;;;23.63;100.00
52983;BME280;48698;45.736;13.926;2023-06-22T19:48:30;97759.22;;;24.18;100.00
52983;BME280;48698;45.736;13.926;2023-06-22T19:53:40;97711.84;;;24.39;100.00
52983;BME280;48698;45.736;13.926;2023-06-22T19:58:44;97752.25;;;24.50;100.00
52983;BME280;48698;45.736;13.926;2023-06-22T20:03:48;97735.91;;;23.82;100.00
52983;BME280;48698;45.736;13.926;2023-06-22T20:08:55;97766.28;;;23.68;100.00
52983;BME280;48698;45.736;13.926;2023-06-22T20:14:01;97787.31;;;22.76;100.00
52983;BME280;48698;45.736;13.926;2023-06-22T20:19:14;97771.28;;;22.55;100.00
52983;BME280;48698;45.736;13.926;2023-06-22T20:24:18;97764.34;;;23.25;100.00
52983;BME280;48698;45.736;13.926;2023-06-22T20:29:26;97789.63;;;22.61;100.00
52983;BME280;48698;45.736;13.926;2023-06-22T20:34:35;97743.25;;;22.20;100.00
52983;BME280;48698;45.736;13.926;2023-06-22T20:39:39;97794.41;;;22.50;100.00
52983;BME280;48698;45.736;13.926;2023-06-22T20:44:42;97783.69;;;22.85;100.00
52983;BME280;48698;45.736;13.926;2023-06-22T20:50:04;97711.94;;;22.17;100.00
52983;BME280;48698;45.736;13.926;2023-06-22T20:55:07;97767.22;;;21.86;100.00
52983;BME280;48698;45.736;13.926;2023-06-22T21:00:11;97799.97;;;21.54;100.00
52983;BME280;48698;45.736;13.926;2023-06-22T21:05:15;97766.94;;;21.98;100.00
52983;BME280;48698;45.736;13.926;2023-06-22T21:10:20;97773.16;;;22.08;100.00
52983;BME280;48698;45.736;13.926;2023-06-22T21:15:23;97780.53;;;22.26;100.00
52983;BME280;48698;45.736;13.926;2023-06-22T21:20:27;97762.56;;;22.25;100.00
52983;BME280;48698;45.736;13.926;2023-06-22T21:25:30;97700.31;;;22.07;100.00
52983;BME280;48698;45.736;13.926;2023-06-22T21:30:44;97716.53;;;21.88;100.00
52983;BME280;48698;45.736;13.926;2023-06-22T21:35:48;97733.03;;;22.13;100.00
52983;BME280;48698;45.736;13.926;2023-06-22T21:40:51;97727.91;;;22.01;100.00
52983;BME280;48698;45.736;13.926;2023-06-22T21:46:05;97733.88;;;22.04;100.00
52983;BME280;48698;45.736;13.926;2023-06-22T21:51:08;97662.25;;;21.72;100.00
52983;BME280;48698;45.736;13.926;2023-06-22T21:56:12;97736.16;;;22.46;100.00
52983;BME280;48698;45.736;13.926;2023-06-22T22:01:15;97740.34;;;22.31;100.00
52983;BME280;48698;45.736;13.926;2023-06-22T22:06:26;97722.25;;;22.31;100.00
52983;BME280;48698;45.736;13.926;2023-06-22T22:11:41;97619.25;;;21.32;100.00
52983;BME280;48698;45.736;13.926;2023-06-22T22:16:44;97692.44;;;21.48;100.00
52983;BME280;48698;45.736;13.926;2023-06-22T22:21:48;97675.41;;;21.28;100.00
52983;BME280;48698;45.736;13.926;2023-06-22T22:26:52;97690.31;;;22.17;100.00
52983;BME280;48698;45.736;13.926;2023-06-22T22:31:55;97720.22;;;22.43;100.00
52983;BME280;48698;45.736;13.926;2023-06-22T22:37:09;97697.78;;;21.86;100.00
52983;BME280;48698;45.736;13.926;2023-06-22T22:42:12;97651.94;;;21.94;100.00
52983;BME280;48698;45.736;13.926;2023-06-22T22:47:18;97689.16;;;22.20;100.00
52983;BME280;48698;45.736;13.926;2023-06-22T22:52:21;97678.41;;;22.55;100.00
52983;BME280;48698;45.736;13.926;2023-06-22T22:57:25;97657.81;;;21.80;100.00
52983;BME280;48698;45.736;13.926;2023-06-22T23:02:32;97669.28;;;22.01;100.00
52983;BME280;48698;45.736;13.926;2023-06-22T23:07:37;97668.41;;;21.45;100.00
52983;BME280;48698;45.736;13.926;2023-06-22T23:12:41;97680.53;;;22.06;100.00
52983;BME280;48698;45.736;13.926;2023-06-22T23:17:50;97630.31;;;21.94;100.00
52983;BME280;48698;45.736;13.926;2023-06-22T23:22:55;97628.81;;;21.07;100.00
52983;BME280;48698;45.736;13.926;2023-06-22T23:28:01;97685.34;;;21.47;100.00
52983;BME280;48698;45.736;13.926;2023-06-22T23:33:05;97672.00;;;20.97;100.00
52983;BME280;48698;45.736;13.926;2023-06-22T23:38:18;97682.81;;;20.88;100.00
52983;BME280;48698;45.736;13.926;2023-06-22T23:43:22;97623.56;;;20.77;100.00
52983;BME280;48698;45.736;13.926;2023-06-22T23:48:25;97673.69;;;20.79;100.00
52983;BME280;48698;45.736;13.926;2023-06-22T23:53:28;97666.16;;;20.24;100.00
52983;BME280;48698;45.736;13.926;2023-06-22T23:58:32;97628.94;;;19.98;100.00
